Calistoga, California
Current Conditions -  °F | °C
As of 3:53 AM on Saturday 25 Oct 2014 (Local Time) from KSTS Reporting Station
Light Rain Light Rain  
Wind Chill: 59°   Ceiling: 2600
Heat Index: 59°   Visibility: 6mi
Dew Point: 58°   Wind: 8mph
Humidity: 96%   Direction: 190°S
Pressure: 29.87"   Gusts: NA
Location:  38.58°N, 122.58°W
Report Text: KSTS 251053Z AUTO 19007KT 6SM -RA BR FEW020 BKN026 OVC044 15/14 A2987 RMK AO2 RAB13 SLP110 P0006 T01500144
Loading
Personal Weather Stations






























Interactive Weather Map
Tropical Storm Tracking
New forecast layout! Learn more

10-Day Weather Forecast

Advertisements
Track Severe Weather on mobile